Time;durP1;ratioP1;P1;durP2;ratioP2;P2;SDS_P1;SDS_P2;PMS_P1;PMS_P2;Temp;Humidity;BMP_temperature;BMP_pressure;BME280_temperature;BME280_humidity;BME280_pressure;Samples;Min_cycle;Max_cycle;Signal;HPM_P1;HPM_P2
2022/04/02 00:01:57;;;;;;;7.07;6.22;;;6.50;99.90;;;6.46;60.35;101550.38;5071746;28;20072;-62
2022/04/02 00:04:27;;;;;;;9.88;6.32;;;6.40;99.90;;;6.47;60.88;101554.78;5072135;28;20083;-62
2022/04/02 00:06:56;;;;;;;10.63;6.30;;;6.50;99.90;;;6.59;60.77;101547.19;5072104;28;20054;-62
2022/04/02 00:09:24;;;;;;;11.20;5.95;;;6.50;99.90;;;6.63;60.97;101555.19;5071712;28;20135;-62
2022/04/02 00:11:53;;;;;;;14.13;6.10;;;6.50;99.90;;;6.49;61.06;101525.06;5071869;28;20102;-62
2022/04/02 00:14:21;;;;;;;9.93;5.75;;;6.50;99.90;;;6.65;61.19;101542.06;5071848;28;20072;-62
2022/04/02 00:16:49;;;;;;;10.10;6.00;;;6.50;99.90;;;6.75;60.97;101541.41;5071651;28;20044;-62
2022/04/02 00:19:20;;;;;;;10.23;6.28;;;6.60;99.90;;;6.70;60.65;101529.91;5071532;28;20041;-62
2022/04/02 00:21:50;;;;;;;;;;;6.60;99.90;;;6.64;60.63;101537.69;5072281;28;20044;-62
2022/04/02 00:24:18;;;;;;;12.43;6.50;;;6.60;99.90;;;6.75;60.58;101533.53;5071853;28;19944;-62
2022/04/02 00:26:47;;;;;;;11.55;6.90;;;6.70;99.90;;;6.64;60.40;101530.66;5071484;28;20282;-61
2022/04/02 00:29:15;;;;;;;11.27;6.70;;;6.60;99.90;;;6.70;60.75;101536.03;5071524;28;20202;-61
2022/04/02 00:31:44;;;;;;;10.15;6.18;;;6.60;99.90;;;6.77;60.29;101537.06;5071383;28;20452;-62
2022/04/02 00:34:12;;;;;;;10.52;6.38;;;6.70;99.90;;;6.72;59.87;101538.69;5070578;28;20072;-62
2022/04/02 00:36:40;;;;;;;9.43;6.25;;;6.70;99.90;;;6.76;60.20;101530.94;5071662;28;20044;-61
2022/04/02 00:39:10;;;;;;;8.63;6.30;;;6.60;99.90;;;6.67;60.13;101541.25;5071457;28;20056;-62
2022/04/02 00:41:39;;;;;;;7.20;5.95;;;6.60;99.90;;;6.80;60.00;101531.88;5071627;28;20230;-62
2022/04/02 00:44:12;;;;;;;10.27;5.90;;;6.70;99.90;;;6.73;60.16;101529.97;5070278;28;20101;-62
2022/04/02 00:46:43;;;;;;;8.40;6.22;;;6.70;99.90;;;6.45;59.87;101477.66;5071300;28;20067;-62
2022/04/02 00:49:14;;;;;;;8.80;6.18;;;6.70;99.90;;;6.89;60.03;101532.94;5071627;28;20048;-62
2022/04/02 00:51:45;;;;;;;12.60;5.80;;;6.80;99.90;;;6.93;59.39;101539.19;5086987;28;20487;-62
2022/04/02 00:54:17;;;;;;;6.90;5.85;;;6.80;99.90;;;6.92;59.34;101537.41;5070362;28;20048;-62
2022/04/02 00:56:46;;;;;;;11.02;6.45;;;6.80;99.90;;;6.91;59.53;101544.38;5071726;28;20068;-62
2022/04/02 00:59:15;;;;;;;7.30;6.25;;;6.80;99.90;;;6.96;59.74;101544.50;5070211;28;20044;-62
2022/04/02 01:01:45;;;;;;;8.18;6.15;;;6.80;99.90;;;6.93;59.82;101541.81;5070294;28;20053;-64
2022/04/02 01:04:14;;;;;;;8.07;6.45;;;6.80;99.90;;;6.97;59.50;101541.00;5104206;28;20048;-62
2022/04/02 01:06:45;;;;;;;10.60;5.53;;;6.90;99.90;;;6.89;59.78;101545.25;5070436;28;20143;-62
2022/04/02 01:09:20;;;;;;;12.15;6.32;;;6.80;99.90;;;6.91;60.08;101538.28;5070561;28;20071;-62
2022/04/02 01:11:54;;;;;;;9.40;6.50;;;6.80;99.90;;;6.63;60.17;101515.75;5072842;28;20120;-62
2022/04/02 01:14:23;;;;;;;7.68;5.88;;;6.70;99.90;;;6.77;60.25;101544.97;5074086;28;20109;-62
2022/04/02 01:16:56;;;;;;;10.05;6.47;;;6.70;99.90;;;6.79;60.67;101540.63;5074424;28;20040;-62
2022/04/02 01:19:26;;;;;;;12.85;6.07;;;6.70;99.90;;;6.87;60.64;101545.19;5074103;28;20222;-62
2022/04/02 01:22:09;;;;;;;11.20;6.18;;;6.70;99.90;;;6.67;61.25;101542.97;5075404;28;20130;-64
2022/04/02 01:24:48;;;;;;;14.52;6.65;;;6.70;99.90;;;6.64;61.60;101541.16;5090941;28;20045;-63
2022/04/02 01:27:18;;;;;;;10.70;6.47;;;6.60;99.90;;;6.77;61.44;101544.97;5073998;28;20076;-62
2022/04/02 01:29:54;;;;;;;12.43;6.43;;;6.60;99.90;;;6.65;61.83;101549.94;5074993;28;20275;-62
2022/04/02 01:32:23;;;;;;;9.18;6.50;;;6.60;99.90;;;6.71;61.69;101557.97;5073646;28;20045;-62
2022/04/02 01:35:02;;;;;;;13.63;5.93;;;6.60;99.90;;;6.82;61.69;101557.34;5073758;28;20045;-62
2022/04/02 01:37:32;;;;;;;7.93;5.93;;;6.60;99.90;;;6.90;61.34;101558.41;5075067;28;20052;-62
2022/04/02 01:40:05;;;;;;;10.63;5.72;;;6.80;99.90;;;6.93;61.14;101552.34;5073799;28;20053;-62
2022/04/02 01:42:44;;;;;;;9.50;6.43;;;6.80;99.90;;;6.96;61.04;101555.03;5073910;28;20076;-62
2022/04/02 01:45:15;;;;;;;10.37;5.90;;;6.90;99.90;;;6.92;60.57;101554.06;5073145;28;20049;-63
2022/04/02 01:47:53;;;;;;;11.18;5.45;;;6.80;99.90;;;6.96;60.71;101555.03;5072918;28;20105;-62
2022/04/02 01:50:27;;;;;;;9.90;6.38;;;6.90;99.90;;;6.82;60.52;101551.19;5106921;28;20080;-62
2022/04/02 01:52:58;;;;;;;7.20;6.10;;;6.70;99.90;;;6.87;60.71;101554.84;5073138;28;20049;-62
2022/04/02 01:55:26;;;;;;;10.65;6.88;;;6.80;99.90;;;6.80;60.81;101552.91;5073134;28;20049;-62
2022/04/02 01:58:02;;;;;;;17.42;5.80;;;6.70;99.90;;;6.83;60.87;101560.88;5073002;28;20136;-62
2022/04/02 02:00:37;;;;;;;8.45;5.93;;;6.70;99.90;;;6.81;61.02;101550.34;5073027;28;20072;-62
2022/04/02 02:03:06;;;;;;;9.65;7.05;;;6.70;99.90;;;6.78;60.98;101565.13;5072993;28;20501;-62
2022/04/02 02:05:36;;;;;;;8.25;6.68;;;6.70;99.90;;;6.87;60.93;101565.34;5072868;28;20055;-62
2022/04/02 02:08:07;;;;;;;9.07;6.30;;;6.70;99.90;;;6.77;60.70;101558.09;5072708;28;20130;-62
2022/04/02 02:10:52;;;;;;;12.60;6.97;;;6.70;99.90;;;6.83;60.66;101558.25;5073862;28;20402;-62
2022/04/02 02:13:44;;;;;;;8.13;6.43;;;6.70;99.90;;;6.87;60.66;101560.94;5072580;28;20048;-62
2022/04/02 02:16:16;;;;;;;18.95;6.68;;;6.80;99.90;;;6.87;60.72;101557.47;5106761;28;20078;-62
2022/04/02 02:18:45;;;;;;;9.93;6.93;;;6.70;99.90;;;6.89;60.45;101558.38;5072740;28;20181;-62
2022/04/02 02:21:14;;;;;;;9.80;6.03;;;6.70;99.90;;;6.86;60.92;101563.56;5073587;28;20491;-62
2022/04/02 02:23:44;;;;;;;10.55;6.47;;;6.70;99.90;;;6.84;61.03;101560.91;5072938;28;20047;-62
2022/04/02 02:26:12;;;;;;;7.65;6.50;;;6.70;99.90;;;6.92;61.18;101564.59;5072359;28;20097;-62
2022/04/02 02:28:42;;;;;;;9.90;6.90;;;6.70;99.90;;;6.88;61.20;101561.84;5106135;28;20412;-62
2022/04/02 02:31:19;;;;;;;11.80;6.93;;;6.80;99.90;;;6.88;61.09;101569.75;5088868;28;20041;-62
2022/04/02 02:36:34;;;;;;;15.52;6.35;;;6.70;99.90;;;6.79;61.44;101561.66;5072111;28;20049;-62
2022/04/02 02:39:10;;;;;;;7.07;6.32;;;6.70;99.90;;;6.77;61.88;101564.25;5072152;28;20147;-62
2022/04/02 02:41:45;;;;;;;8.35;6.10;;;6.60;99.90;;;6.57;62.00;101564.66;5072029;28;20048;-61
2022/04/02 02:44:27;;;;;;;8.32;6.75;;;6.50;99.90;;;6.62;62.07;101576.19;5071882;28;20418;-61
2022/04/02 02:47:11;;;;;;;10.32;6.68;;;6.50;99.90;;;6.67;61.85;101567.53;5071849;28;20077;-61
2022/04/02 02:49:42;;;;;;;10.63;6.82;;;6.60;99.90;;;6.63;61.81;101577.94;5072856;28;20450;-61
2022/04/02 02:52:14;;;;;;;9.57;6.10;;;6.50;99.90;;;6.66;62.00;101570.13;5071700;28;20593;-61
2022/04/02 02:54:46;;;;;;;9.80;6.72;;;6.60;99.90;;;6.61;61.89;101570.03;5088514;28;20048;-60
2022/04/02 02:57:14;;;;;;;9.18;6.05;;;6.50;99.90;;;6.65;61.51;101579.75;5071358;28;20044;-60
2022/04/02 02:59:43;;;;;;;10.43;6.80;;;6.60;99.90;;;6.57;61.74;101572.53;5071547;28;20479;-61
2022/04/02 03:02:15;;;;;;;7.50;6.75;;;6.50;99.90;;;6.57;61.68;101576.06;5072639;28;20120;-61
2022/04/02 03:04:48;;;;;;;8.23;6.25;;;6.50;99.90;;;6.59;61.93;101569.09;5105350;28;20064;-61
2022/04/02 03:07:25;;;;;;;10.07;6.35;;;6.50;99.90;;;6.51;62.02;101569.75;5071589;28;20083;-61
2022/04/02 03:10:00;;;;;;;11.80;6.60;;;6.50;99.90;;;6.53;62.27;101573.31;5071416;28;20044;-61
2022/04/02 03:12:29;;;;;;;11.85;7.78;;;6.50;99.90;;;6.49;62.37;101566.22;5071420;28;20048;-61
2022/04/02 03:15:01;;;;;;;8.15;7.35;;;6.40;99.90;;;6.53;62.56;101563.69;5071367;28;20055;-61
2022/04/02 03:17:32;;;;;;;15.77;6.97;;;6.50;99.90;;;6.60;62.34;101565.59;5071309;28;20384;-61
2022/04/02 03:20:01;;;;;;;7.88;6.35;;;6.60;99.90;;;6.57;62.73;101569.91;5088207;28;20114;-61
2022/04/02 03:22:35;;;;;;;9.95;6.65;;;6.50;99.90;;;6.59;62.86;101562.94;5070878;28;20049;-61
2022/04/02 03:25:07;;;;;;;14.68;7.63;;;6.50;99.90;;;6.49;62.83;101558.31;5071241;28;20064;-61
2022/04/02 03:27:37;;;;;;;9.48;6.25;;;6.50;99.90;;;6.63;63.17;101564.78;5071139;28;20470;-61
2022/04/02 03:30:09;;;;;;;8.48;6.97;;;6.50;99.90;;;6.68;62.89;101565.81;5072550;28;20111;-61
2022/04/02 03:32:38;;;;;;;10.15;7.55;;;6.60;99.90;;;6.70;62.76;101564.97;5071103;28;20494;-61
2022/04/02 03:35:10;;;;;;;11.70;7.32;;;6.60;99.90;;;6.67;62.64;101572.78;5071003;28;20320;-61
2022/04/02 03:37:39;;;;;;;7.90;6.60;;;6.60;99.90;;;6.58;62.94;101576.97;5071024;28;20051;-61
2022/04/02 03:40:14;;;;;;;8.93;7.18;;;6.50;99.90;;;6.53;63.16;101574.22;5070911;28;20048;-61
2022/04/02 03:42:46;;;;;;;9.30;6.57;;;6.50;99.90;;;6.43;63.20;101550.34;5071236;28;20440;-61
2022/04/02 03:45:20;;;;;;;8.55;7.22;;;6.50;99.90;;;6.51;63.38;101575.03;5070958;28;20058;-61
2022/04/02 03:47:51;;;;;;;8.75;7.25;;;6.40;99.90;;;6.53;63.08;101565.44;5070800;28;20529;-61
2022/04/02 03:50:20;;;;;;;10.02;6.72;;;6.50;99.90;;;6.60;63.18;101594.50;5072299;28;20149;-62
2022/04/02 03:52:53;;;;;;;11.45;6.85;;;6.50;99.90;;;6.66;63.12;101576.25;5088005;28;20127;-61
2022/04/02 03:55:29;;;;;;;8.75;7.15;;;6.60;99.90;;;6.72;62.57;101580.75;5071035;28;20062;-61
2022/04/02 03:57:59;;;;;;;10.15;7.72;;;6.60;99.90;;;6.60;62.91;101576.13;5071110;28;20057;-61
2022/04/02 04:00:29;;;;;;;9.00;6.15;;;6.50;99.90;;;6.68;62.69;101576.31;5071044;28;20040;-62
2022/04/02 04:03:04;;;;;;;10.00;7.38;;;6.60;99.90;;;6.72;62.67;101578.13;5071039;28;20041;-61
2022/04/02 04:05:39;;;;;;;10.13;6.65;;;6.60;99.90;;;6.75;62.29;101586.09;5072121;28;20048;-61
2022/04/02 04:08:09;;;;;;;9.98;6.85;;;6.60;99.90;;;6.82;62.55;101580.13;5071320;28;20107;-60
2022/04/02 04:10:41;;;;;;;8.80;6.70;;;6.70;99.90;;;6.86;62.15;101579.34;5071427;28;20049;-61
2022/04/02 04:13:10;;;;;;;12.57;6.75;;;6.70;99.90;;;6.78;61.89;101583.53;5071276;28;20053;-61
2022/04/02 04:15:41;;;;;;;10.90;6.90;;;6.70;99.90;;;6.73;61.96;101593.97;5071349;28;20052;-61
2022/04/02 04:18:11;;;;;;;10.10;7.72;;;6.60;99.90;;;6.78;62.08;101597.56;5070985;28;20419;-61
2022/04/02 04:20:41;;;;;;;11.57;6.80;;;6.60;99.90;;;6.80;61.79;101592.34;5071035;28;20154;-61
2022/04/02 04:23:14;;;;;;;12.80;6.25;;;6.60;99.90;;;6.93;61.55;101604.94;5071074;28;20143;-61
2022/04/02 04:25:44;;;;;;;10.30;6.07;;;6.80;99.90;;;6.89;61.31;101600.47;5070943;28;20048;-61
2022/04/02 04:28:14;;;;;;;6.68;6.00;;;6.80;99.90;;;6.77;61.30;101603.69;5071186;28;20512;-61
2022/04/02 04:30:46;;;;;;;7.50;5.60;;;6.70;99.90;;;6.85;61.31;101609.13;5070980;28;20048;-61
2022/04/02 04:33:14;;;;;;;13.07;6.95;;;6.70;99.90;;;6.72;60.95;101615.84;5071692;28;20360;-61
2022/04/02 04:35:43;;;;;;;11.55;6.72;;;6.60;99.90;;;6.78;60.98;101607.19;5070594;28;20498;-61
2022/04/02 04:38:13;;;;;;;8.67;6.17;;;6.60;99.90;;;6.71;61.32;101610.53;5070602;28;20148;-61
2022/04/02 04:40:44;;;;;;;6.72;6.13;;;6.60;99.90;;;6.69;61.41;101607.00;5070566;28;20305;-61
2022/04/02 04:43:13;;;;;;;11.18;6.20;;;6.60;99.90;;;6.66;60.94;101613.06;5070490;28;20383;-61
2022/04/02 04:45:45;;;;;;;9.52;6.47;;;6.50;99.90;;;6.68;60.90;101616.59;5070945;28;20049;-61
2022/04/02 04:48:15;;;;;;;10.30;6.55;;;6.50;99.90;;;6.73;60.98;101619.34;5073818;28;20486;-61
2022/04/02 04:50:52;;;;;;;10.85;7.03;;;6.60;99.90;;;6.79;60.66;101614.25;5074318;28;20056;-61
2022/04/02 04:53:23;;;;;;;11.43;6.65;;;6.70;99.90;;;6.80;60.73;101621.25;5074200;28;20244;-61
2022/04/02 04:55:54;;;;;;;7.65;6.43;;;6.70;99.90;;;6.78;60.66;101626.50;5074077;28;20052;-61
2022/04/02 04:58:25;;;;;;;8.43;6.65;;;6.60;99.90;;;6.66;60.52;101627.97;5074086;28;20044;-61
2022/04/02 05:00:58;;;;;;;9.27;6.22;;;6.60;99.90;;;6.68;60.57;101639.41;5074051;28;20123;-61
2022/04/02 05:03:28;;;;;;;9.27;8.27;;;6.60;99.90;;;6.69;60.55;101639.44;5074069;28;20324;-61
2022/04/02 05:05:57;;;;;;;7.70;6.90;;;6.60;99.90;;;6.65;60.89;101636.69;5090828;28;20052;-61
2022/04/02 05:08:26;;;;;;;8.57;6.53;;;6.50;99.90;;;6.63;60.82;101628.78;5073829;28;20036;-61
2022/04/02 05:11:01;;;;;;;9.68;7.13;;;6.50;99.90;;;6.62;60.91;101637.50;5073847;28;20127;-61
2022/04/02 05:13:37;;;;;;;11.35;7.47;;;6.50;99.90;;;6.61;61.07;101642.72;5073695;28;20048;-61
2022/04/02 05:16:07;;;;;;;7.53;6.72;;;6.40;99.90;;;6.69;60.95;101638.53;5074754;28;20056;-61
2022/04/02 05:18:36;;;;;;;10.75;6.82;;;6.50;99.90;;;6.68;60.63;101649.91;5073370;28;20048;-61
2022/04/02 05:21:05;;;;;;;10.00;7.25;;;6.50;99.90;;;6.63;60.77;101646.28;5073869;28;20048;-61
2022/04/02 05:23:41;;;;;;;10.00;6.93;;;6.50;99.90;;;5.83;60.79;101532.22;5073956;28;20095;-61
2022/04/02 05:26:11;;;;;;;9.70;6.78;;;6.40;99.90;;;6.50;60.84;101649.47;5073557;28;20051;-61
2022/04/02 05:28:42;;;;;;;14.80;7.28;;;6.40;99.90;;;6.48;60.86;101648.53;5073998;28;20053;-61
2022/04/02 05:31:10;;;;;;;11.00;7.20;;;6.40;99.90;;;6.59;60.09;101654.94;5073951;28;20499;-61
2022/04/02 05:33:39;;;;;;;10.73;7.47;;;6.50;99.90;;;6.54;60.48;101660.09;5074896;28;20358;-61
2022/04/02 05:36:09;;;;;;;11.23;6.82;;;6.50;99.90;;;5.83;60.45;101553.22;5073417;28;20067;-61
2022/04/02 05:38:38;;;;;;;11.35;6.65;;;6.30;99.90;;;6.50;60.64;101665.22;5074614;28;20063;-61
2022/04/02 05:41:06;;;;;;;10.60;6.55;;;6.40;99.90;;;6.42;60.66;101664.16;5073105;28;20436;-61
2022/04/02 05:43:36;;;;;;;10.48;7.15;;;6.30;99.90;;;6.41;60.78;101673.75;5074419;28;20072;-61
2022/04/02 05:46:04;;;;;;;8.02;6.00;;;6.30;99.90;;;6.43;60.60;101673.81;5072850;28;20056;-61
2022/04/02 05:48:33;;;;;;;9.13;7.00;;;6.30;99.90;;;6.45;60.75;101685.22;5074532;28;20049;-61
2022/04/02 05:51:01;;;;;;;9.07;7.53;;;6.30;99.90;;;6.57;60.37;101689.06;5074271;28;20102;-61
2022/04/02 05:53:30;;;;;;;9.15;7.38;;;6.40;99.90;;;6.56;60.40;101681.16;5074332;28;20140;-61
2022/04/02 05:55:58;;;;;;;13.15;7.50;;;6.40;99.90;;;6.48;60.86;101687.94;5073962;28;20036;-61
2022/04/02 05:58:27;;;;;;;9.45;6.72;;;6.40;99.90;;;6.43;60.60;101694.84;5072697;28;20128;-61
2022/04/02 06:00:57;;;;;;;12.23;7.53;;;6.40;99.90;;;6.41;60.70;101686.03;5073950;28;20044;-61
2022/04/02 06:03:25;;;;;;;10.98;7.10;;;6.30;99.90;;;6.55;60.22;101692.50;5074138;28;20131;-62
2022/04/02 06:05:54;;;;;;;11.93;7.00;;;6.40;99.90;;;6.49;59.93;101695.88;5073800;28;20502;-62
2022/04/02 06:08:23;;;;;;;8.98;6.90;;;6.40;99.90;;;6.53;60.04;101700.34;5073795;28;20420;-62
2022/04/02 06:10:51;;;;;;;11.00;7.45;;;6.40;99.90;;;6.66;60.21;101705.06;5073774;28;20120;-62
2022/04/02 06:13:20;;;;;;;8.18;7.15;;;6.50;99.90;;;6.69;59.47;101702.53;5073664;28;20450;-62
2022/04/02 06:15:48;;;;;;;11.32;7.30;;;6.60;99.90;;;6.83;58.60;101710.75;5073494;28;20040;-62
2022/04/02 06:18:18;;;;;;;8.27;7.20;;;6.60;99.90;;;6.82;58.82;101715.09;5073807;28;20036;-62
2022/04/02 06:20:48;;;;;;;8.20;7.32;;;6.70;99.90;;;6.86;58.53;101711.69;5073615;28;20094;-62
2022/04/02 06:23:17;;;;;;;11.27;7.47;;;6.80;99.90;;;6.72;58.24;101714.81;5073530;28;20044;-62
2022/04/02 06:25:46;;;;;;;9.23;7.65;;;6.60;99.90;;;6.62;58.80;101695.31;5072321;28;20293;-62
2022/04/02 06:28:14;;;;;;;11.93;6.53;;;6.60;99.90;;;6.77;58.62;101708.84;5073666;28;20044;-62
2022/04/02 06:30:43;;;;;;;8.02;6.30;;;6.60;99.90;;;6.83;58.63;101729.16;5073330;28;20127;-62
2022/04/02 06:33:11;;;;;;;7.82;6.80;;;6.60;99.90;;;6.86;58.09;101732.72;5073521;28;20131;-62
2022/04/02 06:35:42;;;;;;;10.25;6.93;;;6.70;99.90;;;7.13;58.87;101735.13;5072134;28;20105;-62
2022/04/02 06:38:13;;;;;;;7.40;6.50;;;6.90;99.90;;;7.44;58.24;101729.69;5072205;28;20048;-62
2022/04/02 06:40:41;;;;;;;11.60;6.63;;;7.20;99.90;;;7.70;57.97;101733.78;5073058;28;20467;-63
2022/04/02 06:43:10;;;;;;;9.15;7.28;;;7.50;99.90;;;7.99;57.00;101735.25;5073295;28;20143;-63
2022/04/02 06:45:47;;;;;;;8.93;6.22;;;7.80;99.90;;;8.44;56.65;101737.03;5072098;28;20139;-63
2022/04/02 06:48:16;;;;;;;9.00;5.88;;;8.20;99.90;;;8.84;55.56;101744.78;5073271;28;20132;-63
2022/04/02 06:50:47;;;;;;;12.88;5.95;;;8.60;99.90;;;9.17;54.10;101745.31;5073606;28;20045;-63
2022/04/02 06:53:15;;;;;;;6.90;6.18;;;9.00;99.90;;;9.39;53.19;101757.94;5073089;28;20072;-63
2022/04/02 06:55:45;;;;;;;12.52;5.80;;;9.20;99.90;;;9.63;52.14;101752.13;5072933;28;20079;-63
2022/04/02 06:58:28;;;;;;;8.30;6.03;;;9.50;99.90;;;9.93;51.77;101763.09;5073255;28;20090;-63
2022/04/02 07:00:56;;;;;;;7.82;5.53;;;9.70;99.90;;;9.99;50.97;101761.41;5073042;28;20040;-64
2022/04/02 07:03:25;;;;;;;9.02;6.03;;;9.90;99.90;;;10.23;50.63;101768.78;5072758;28;20044;-64
2022/04/02 07:05:55;;;;;;;11.48;5.88;;;10.10;99.90;;;10.32;49.78;101774.16;5073010;28;20051;-64
2022/04/02 07:08:23;;;;;;;7.95;5.68;;;10.20;99.90;;;10.55;49.50;101783.22;5073073;28;20448;-63
2022/04/02 07:10:52;;;;;;;7.75;5.88;;;10.40;99.90;;;10.73;49.42;101785.19;5105971;28;20036;-64
2022/04/02 07:13:20;;;;;;;9.43;5.80;;;10.60;99.90;;;10.83;49.85;101790.59;5071952;28;20462;-61
2022/04/02 07:15:48;;;;;;;8.70;5.60;;;10.60;99.90;;;10.89;49.04;101785.34;5072745;28;20393;-61
2022/04/02 07:18:17;;;;;;;10.10;5.90;;;10.80;99.90;;;10.97;48.22;101793.34;5072948;28;20059;-61
2022/04/02 07:20:50;;;;;;;8.07;5.75;;;10.80;99.90;;;11.03;48.08;101798.72;5072762;28;20047;-61
2022/04/02 07:23:21;;;;;;;9.23;6.00;;;10.90;99.90;;;10.96;48.68;101802.16;5072967;28;20113;-63
2022/04/02 07:25:55;;;;;;;8.40;5.50;;;10.80;99.90;;;11.12;47.71;101804.06;5071836;28;20397;-62
2022/04/02 07:28:25;;;;;;;9.25;5.72;;;10.90;99.90;;;11.04;46.75;101810.16;5073610;28;20157;-62
2022/04/02 07:30:53;;;;;;;7.07;5.88;;;10.90;99.90;;;10.96;46.67;101799.50;5072787;28;20413;-62
2022/04/02 07:33:25;;;;;;;6.68;6.07;;;10.80;99.90;;;10.94;46.94;101806.53;5088184;28;20072;-63
2022/04/02 07:35:56;;;;;;;6.55;5.35;;;10.80;99.90;;;10.93;47.32;101806.53;5072316;28;20139;-62
2022/04/02 07:38:38;;;;;;;6.82;5.80;;;10.80;99.90;;;11.04;46.37;101820.75;5072480;28;20558;-62
2022/04/02 07:41:17;;;;;;;8.20;5.10;;;10.90;99.90;;;11.08;45.79;101823.44;5072354;28;20102;-63
2022/04/02 07:43:52;;;;;;;7.85;5.10;;;11.00;99.90;;;11.11;45.49;101814.66;5072487;28;20098;-61
2022/04/02 07:46:26;;;;;;;8.27;5.30;;;11.10;99.90;;;10.99;45.10;101822.47;5072875;28;20457;-60
2022/04/02 07:48:58;;;;;;;7.22;5.82;;;10.90;99.90;;;11.08;45.79;101823.44;5072463;28;20052;-61
2022/04/02 07:51:31;;;;;;;8.98;5.40;;;11.00;99.90;;;11.19;45.85;101808.53;5071011;28;20055;-61
2022/04/02 07:54:05;;;;;;;7.25;5.10;;;11.10;99.90;;;11.33;44.93;101812.19;5072332;28;20052;-62
2022/04/02 07:56:38;;;;;;;5.65;5.15;;;11.30;99.90;;;11.43;44.61;101827.28;5070497;28;20048;-62
2022/04/02 07:59:11;;;;;;;14.68;4.88;;;11.30;99.90;;;11.39;44.04;101828.13;5072005;28;20048;-62
2022/04/02 08:01:45;;;;;;;6.60;5.95;;;11.40;99.90;;;11.48;43.52;101809.63;5070815;28;20102;-61
2022/04/02 08:04:13;;;;;;;5.82;5.03;;;11.40;99.90;;;11.34;43.03;101819.22;5071884;28;20505;-61
2022/04/02 08:06:44;;;;;;;10.95;4.75;;;11.30;99.90;;;11.35;42.95;101828.97;5071896;28;20072;-61
2022/04/02 08:09:17;;;;;;;8.73;5.10;;;11.30;99.90;;;11.49;43.21;101832.63;5070765;28;20060;-61
2022/04/02 08:11:48;;;;;;;5.55;4.25;;;11.40;99.90;;;11.68;42.75;101837.19;5072190;28;20052;-62
2022/04/02 08:14:19;;;;;;;5.07;4.55;;;11.50;99.90;;;11.72;42.76;101827.50;5072179;28;20106;-62
2022/04/02 08:16:49;;;;;;;;;;;11.60;99.90;;;11.52;42.26;101829.97;5072469;28;20040;-61
2022/04/02 08:19:23;;;;;;;9.05;4.63;;;11.60;99.90;;;11.60;42.29;101822.09;5104741;28;19921;-62
2022/04/02 08:21:52;;;;;;;6.10;5.00;;;11.60;99.90;;;11.55;42.38;101832.66;5073608;28;20098;-62
2022/04/02 08:24:22;;;;;;;6.50;4.90;;;11.50;99.90;;;11.46;42.04;101840.53;5076186;28;20040;-61
2022/04/02 08:27:01;;;;;;;5.47;4.70;;;11.40;99.90;;;11.64;41.96;101839.78;5076146;28;20094;-61
2022/04/02 08:29:46;;;;;;;8.57;5.18;;;11.50;99.90;;;11.18;42.16;101842.94;5076223;28;20040;-62
2022/04/02 08:32:27;;;;;;;7.88;4.40;;;11.20;99.90;;;11.39;42.60;101841.38;5075881;28;20478;-61
2022/04/02 08:35:08;;;;;;;6.45;4.50;;;11.20;99.90;;;11.56;41.57;101839.72;5075932;28;20487;-61
2022/04/02 08:38:15;;;;;;;4.47;4.07;;;11.40;99.90;;;11.02;40.07;101828.69;5075981;28;20477;-61
2022/04/02 08:41:50;;;;;;;6.05;4.55;;;11.10;99.90;;;10.76;40.50;101854.03;5075895;28;20048;-61
2022/04/02 08:45:14;;;;;;;7.38;4.57;;;10.80;99.90;;;10.64;41.16;101853.88;5075711;28;20041;-62
2022/04/02 08:48:27;;;;;;;4.80;4.40;;;10.60;99.90;;;9.96;39.72;101858.28;5051371;28;20155;-61
2022/04/02 08:51:11;;;;;;;6.95;4.30;;;10.00;99.90;;;9.67;40.18;101854.31;5074637;28;20562;-61
2022/04/02 08:53:51;;;;;;;5.95;4.90;;;9.70;99.90;;;9.61;40.31;101862.16;5075707;28;20048;-61
2022/04/02 08:56:25;;;;;;;5.20;4.70;;;9.60;99.90;;;9.46;40.90;101854.00;5075397;28;20421;-61
2022/04/02 08:59:04;;;;;;;6.15;4.47;;;9.50;99.90;;;9.27;40.09;101855.44;5074508;28;20056;-61
2022/04/02 09:01:42;;;;;;;6.68;4.68;;;9.30;99.90;;;9.28;40.49;101859.88;5075332;28;20044;-61
2022/04/02 09:04:56;;;;;;;5.00;4.47;;;9.20;99.90;;;9.19;40.96;101864.09;5075300;28;20490;-61
2022/04/02 09:08:45;;;;;;;9.00;5.70;;;9.10;99.90;;;9.23;41.06;101872.13;5075137;28;20040;-61
2022/04/02 09:11:40;;;;;;;5.53;4.60;;;9.00;99.90;;;9.17;40.85;101876.38;5032713;28;20041;-61
2022/04/02 09:14:51;;;;;;;5.75;4.70;;;9.10;99.90;;;8.95;40.69;101860.19;5073637;28;20182;-61
2022/04/02 09:17:37;;;;;;;5.03;4.55;;;8.90;99.90;;;8.90;41.52;101869.75;5055141;28;20568;-61
2022/04/02 09:20:36;;;;;;;7.63;5.05;;;8.90;99.90;;;8.70;41.55;101871.13;5073769;28;20053;-61
2022/04/02 09:23:12;;;;;;;5.03;4.40;;;8.70;99.90;;;8.66;41.38;101881.59;5075164;28;20049;-61
2022/04/02 09:26:22;;;;;;;5.88;4.78;;;8.50;99.90;;;8.64;42.04;101885.94;5074802;28;20048;-62
2022/04/02 09:29:17;;;;;;;6.55;4.97;;;8.50;99.90;;;8.76;42.21;101884.44;5074832;28;20056;-61
2022/04/02 09:32:39;;;;;;;5.97;4.80;;;8.60;99.90;;;8.83;41.86;101885.44;5074262;28;20052;-61
2022/04/02 09:35:54;;;;;;;5.88;4.90;;;8.80;99.90;;;8.95;42.02;101891.84;5074925;28;20563;-61
2022/04/02 09:39:02;;;;;;;7.38;4.57;;;8.80;99.90;;;8.93;42.02;101882.09;5055799;28;20078;-61
2022/04/02 09:42:02;;;;;;;7.00;4.90;;;8.80;99.90;;;9.06;41.72;101878.81;5074277;28;20486;-61
2022/04/02 09:44:53;;;;;;;6.65;4.50;;;8.90;99.90;;;9.39;42.74;101882.03;5074826;28;20115;-61
2022/04/02 09:47:39;;;;;;;6.47;4.10;;;9.20;99.90;;;9.85;41.35;101881.91;5073125;28;20458;-61
2022/04/02 09:50:11;;;;;;;5.40;4.72;;;9.60;99.90;;;9.99;41.06;101890.91;5074996;28;20316;-62
2022/04/02 09:52:45;;;;;;;7.53;4.43;;;9.90;99.90;;;10.06;40.80;101888.38;5074677;28;20048;-61
2022/04/02 09:55:22;;;;;;;4.05;3.72;;;9.90;99.90;;;10.01;38.48;101880.38;5074357;28;20068;-61
2022/04/02 09:58:29;;;;;;;6.00;4.57;;;10.00;99.90;;;9.05;36.72;101787.34;5074346;28;20106;-61
2022/04/02 10:01:04;;;;;;;5.97;4.70;;;9.60;99.90;;;9.62;37.80;101887.72;5074626;28;20087;-62
2022/04/02 10:03:40;;;;;;;5.40;4.90;;;9.60;99.90;;;9.72;39.46;101895.78;5074153;28;20090;-61
2022/04/02 10:06:24;;;;;;;4.97;4.53;;;9.60;99.90;;;10.31;39.22;101887.88;5074115;28;20098;-61
2022/04/02 10:09:12;;;;;;;5.63;4.50;;;10.10;99.90;;;10.65;38.67;101890.03;5074211;28;20048;-61
2022/04/02 10:11:46;;;;;;;5.78;4.90;;;10.50;99.90;;;10.86;39.31;101887.63;5074288;28;20040;-61
2022/04/02 10:14:22;;;;;;;5.22;4.72;;;10.70;99.90;;;11.15;38.89;101887.94;5074869;28;20097;-61
2022/04/02 10:16:53;;;;;;;4.60;4.10;;;11.00;99.90;;;11.14;37.75;101892.34;5074088;28;20488;-61
2022/04/02 10:19:29;;;;;;;4.97;4.47;;;11.10;99.90;;;11.27;36.89;101880.09;5074072;28;20425;-62
2022/04/02 10:22:03;;;;;;;4.53;4.13;;;11.20;99.90;;;11.27;36.48;101886.28;5073941;28;20052;-61
2022/04/02 10:24:38;;;;;;;5.78;4.20;;;11.20;99.90;;;11.26;35.12;101881.00;5073912;28;20040;-61
2022/04/02 10:27:10;;;;;;;6.60;4.22;;;11.20;99.90;;;10.97;34.52;101883.38;5074170;28;20056;-61
2022/04/02 10:30:07;;;;;;;4.95;4.50;;;11.00;99.90;;;11.01;35.02;101889.56;5074215;28;20094;-62
2022/04/02 10:32:55;;;;;;;6.47;4.07;;;11.00;99.90;;;11.22;35.65;101895.06;5073875;28;20047;-61
2022/04/02 10:35:26;;;;;;;8.38;4.63;;;11.10;99.90;;;10.99;35.83;101892.22;5073665;28;20048;-62
2022/04/02 10:38:09;;;;;;;4.70;4.30;;;10.90;99.90;;;10.95;36.32;101895.69;5072346;28;20047;-62
2022/04/02 10:40:49;;;;;;;5.35;4.10;;;10.90;99.90;;;10.64;35.48;101889.19;5073872;28;20651;-62
2022/04/02 10:43:27;;;;;;;9.03;5.00;;;10.70;99.90;;;10.58;36.86;101897.03;5072813;28;20135;-62
2022/04/02 10:45:56;;;;;;;5.85;4.47;;;10.50;99.90;;;10.34;36.86;101896.72;5073572;28;20135;-61
2022/04/02 10:48:38;;;;;;;5.33;4.50;;;10.30;99.90;;;10.32;37.98;101886.97;5073493;28;20059;-61
2022/04/02 10:51:09;;;;;;;7.55;4.63;;;10.20;99.90;;;10.29;38.30;101887.84;5073565;28;20278;-61
2022/04/02 10:53:43;;;;;;;5.30;4.80;;;10.20;99.90;;;10.26;38.37;101897.50;5073364;28;20047;-61
2022/04/02 10:56:18;;;;;;;5.82;4.55;;;10.10;99.90;;;10.44;38.80;101892.44;5073214;28;20076;-61